sensor_id;sensor_type;location;lat;lon;timestamp;P1;durP1;ratioP1;P2;durP2;ratioP2
3541;SDS011;1785;47.388;8.538;2023-08-31T00:01:49;4.80;;;4.37;;
3541;SDS011;1785;47.388;8.538;2023-08-31T00:04:15;5.13;;;4.73;;
3541;SDS011;1785;47.388;8.538;2023-08-31T00:06:41;4.93;;;4.57;;
3541;SDS011;1785;47.388;8.538;2023-08-31T00:09:09;4.60;;;4.20;;
3541;SDS011;1785;47.388;8.538;2023-08-31T00:11:36;5.77;;;4.90;;
3541;SDS011;1785;47.388;8.538;2023-08-31T00:14:03;4.33;;;4.03;;
3541;SDS011;1785;47.388;8.538;2023-08-31T00:16:30;4.87;;;4.57;;
3541;SDS011;1785;47.388;8.538;2023-08-31T00:18:56;5.07;;;4.77;;
3541;SDS011;1785;47.388;8.538;2023-08-31T00:21:22;5.23;;;4.77;;
3541;SDS011;1785;47.388;8.538;2023-08-31T00:23:48;5.03;;;4.70;;
3541;SDS011;1785;47.388;8.538;2023-08-31T00:26:14;4.90;;;4.50;;
3541;SDS011;1785;47.388;8.538;2023-08-31T00:28:41;4.67;;;4.27;;
3541;SDS011;1785;47.388;8.538;2023-08-31T00:31:09;4.57;;;4.20;;
3541;SDS011;1785;47.388;8.538;2023-08-31T00:33:37;4.90;;;4.37;;
3541;SDS011;1785;47.388;8.538;2023-08-31T00:36:04;4.70;;;4.30;;
3541;SDS011;1785;47.388;8.538;2023-08-31T00:38:30;4.53;;;4.17;;
3541;SDS011;1785;47.388;8.538;2023-08-31T00:40:56;5.00;;;4.60;;
3541;SDS011;1785;47.388;8.538;2023-08-31T00:43:22;3.93;;;3.53;;
3541;SDS011;1785;47.388;8.538;2023-08-31T00:45:50;4.50;;;4.10;;
3541;SDS011;1785;47.388;8.538;2023-08-31T00:48:21;4.60;;;4.20;;
3541;SDS011;1785;47.388;8.538;2023-08-31T00:50:47;4.40;;;4.10;;
3541;SDS011;1785;47.388;8.538;2023-08-31T00:53:14;4.27;;;3.87;;
3541;SDS011;1785;47.388;8.538;2023-08-31T00:55:40;4.60;;;4.20;;
3541;SDS011;1785;47.388;8.538;2023-08-31T00:58:07;4.70;;;4.27;;
3541;SDS011;1785;47.388;8.538;2023-08-31T01:00:38;4.77;;;4.37;;
3541;SDS011;1785;47.388;8.538;2023-08-31T01:03:12;3.78;;;3.47;;
3541;SDS011;1785;47.388;8.538;2023-08-31T01:05:44;4.70;;;4.20;;
3541;SDS011;1785;47.388;8.538;2023-08-31T01:08:19;4.60;;;4.20;;
3541;SDS011;1785;47.388;8.538;2023-08-31T01:10:58;4.53;;;4.23;;
3541;SDS011;1785;47.388;8.538;2023-08-31T01:13:33;4.83;;;4.30;;
3541;SDS011;1785;47.388;8.538;2023-08-31T01:16:03;4.23;;;3.07;;
3541;SDS011;1785;47.388;8.538;2023-08-31T01:18:33;4.60;;;3.90;;
3541;SDS011;1785;47.388;8.538;2023-08-31T01:21:05;4.03;;;3.63;;
3541;SDS011;1785;47.388;8.538;2023-08-31T01:23:46;3.80;;;3.50;;
3541;SDS011;1785;47.388;8.538;2023-08-31T01:26:16;4.83;;;3.73;;
3541;SDS011;1785;47.388;8.538;2023-08-31T01:28:42;4.53;;;4.10;;
3541;SDS011;1785;47.388;8.538;2023-08-31T01:31:09;4.10;;;3.80;;
3541;SDS011;1785;47.388;8.538;2023-08-31T01:33:35;4.80;;;3.33;;
3541;SDS011;1785;47.388;8.538;2023-08-31T01:36:01;4.40;;;4.00;;
3541;SDS011;1785;47.388;8.538;2023-08-31T01:38:34;3.50;;;3.20;;
3541;SDS011;1785;47.388;8.538;2023-08-31T01:41:05;4.17;;;3.43;;
3541;SDS011;1785;47.388;8.538;2023-08-31T01:43:35;3.53;;;3.27;;
3541;SDS011;1785;47.388;8.538;2023-08-31T01:46:04;3.93;;;3.23;;
3541;SDS011;1785;47.388;8.538;2023-08-31T01:48:30;3.97;;;3.63;;
3541;SDS011;1785;47.388;8.538;2023-08-31T01:50:57;3.67;;;3.37;;
3541;SDS011;1785;47.388;8.538;2023-08-31T01:53:25;4.37;;;3.70;;
3541;SDS011;1785;47.388;8.538;2023-08-31T01:55:51;3.20;;;2.60;;
3541;SDS011;1785;47.388;8.538;2023-08-31T01:58:18;3.43;;;3.13;;
3541;SDS011;1785;47.388;8.538;2023-08-31T02:00:44;3.10;;;2.90;;
3541;SDS011;1785;47.388;8.538;2023-08-31T02:03:10;4.17;;;3.40;;
3541;SDS011;1785;47.388;8.538;2023-08-31T02:05:36;3.83;;;3.53;;
3541;SDS011;1785;47.388;8.538;2023-08-31T02:08:02;3.40;;;3.20;;
3541;SDS011;1785;47.388;8.538;2023-08-31T02:10:28;2.60;;;2.30;;
3541;SDS011;1785;47.388;8.538;2023-08-31T02:12:55;3.27;;;2.97;;
3541;SDS011;1785;47.388;8.538;2023-08-31T02:15:21;3.60;;;3.30;;
3541;SDS011;1785;47.388;8.538;2023-08-31T02:17:47;4.20;;;3.20;;
3541;SDS011;1785;47.388;8.538;2023-08-31T02:20:13;3.30;;;3.03;;
3541;SDS011;1785;47.388;8.538;2023-08-31T02:22:40;3.43;;;3.13;;
3541;SDS011;1785;47.388;8.538;2023-08-31T02:25:06;3.30;;;3.00;;
3541;SDS011;1785;47.388;8.538;2023-08-31T02:27:32;3.80;;;3.43;;
3541;SDS011;1785;47.388;8.538;2023-08-31T02:29:59;3.93;;;3.30;;
3541;SDS011;1785;47.388;8.538;2023-08-31T02:32:26;4.00;;;3.40;;
3541;SDS011;1785;47.388;8.538;2023-08-31T02:34:52;3.20;;;2.90;;
3541;SDS011;1785;47.388;8.538;2023-08-31T02:37:18;4.50;;;3.50;;
3541;SDS011;1785;47.388;8.538;2023-08-31T02:39:44;3.83;;;3.20;;
3541;SDS011;1785;47.388;8.538;2023-08-31T02:42:10;4.77;;;3.93;;
3541;SDS011;1785;47.388;8.538;2023-08-31T02:44:36;4.00;;;3.70;;
3541;SDS011;1785;47.388;8.538;2023-08-31T02:47:02;6.27;;;3.83;;
3541;SDS011;1785;47.388;8.538;2023-08-31T02:49:29;4.00;;;3.60;;
3541;SDS011;1785;47.388;8.538;2023-08-31T02:51:55;3.73;;;3.37;;
3541;SDS011;1785;47.388;8.538;2023-08-31T02:54:21;3.63;;;3.20;;
3541;SDS011;1785;47.388;8.538;2023-08-31T02:56:47;3.43;;;3.10;;
3541;SDS011;1785;47.388;8.538;2023-08-31T02:59:13;3.90;;;3.60;;
3541;SDS011;1785;47.388;8.538;2023-08-31T03:01:39;5.93;;;3.87;;
3541;SDS011;1785;47.388;8.538;2023-08-31T03:04:05;3.50;;;3.20;;
3541;SDS011;1785;47.388;8.538;2023-08-31T03:06:32;3.07;;;2.87;;
3541;SDS011;1785;47.388;8.538;2023-08-31T03:08:58;3.73;;;3.40;;
3541;SDS011;1785;47.388;8.538;2023-08-31T03:11:24;3.60;;;3.30;;
3541;SDS011;1785;47.388;8.538;2023-08-31T03:13:50;3.73;;;3.40;;
3541;SDS011;1785;47.388;8.538;2023-08-31T03:16:17;3.47;;;3.27;;
3541;SDS011;1785;47.388;8.538;2023-08-31T03:18:43;3.70;;;3.50;;
3541;SDS011;1785;47.388;8.538;2023-08-31T03:21:09;3.60;;;3.30;;
3541;SDS011;1785;47.388;8.538;2023-08-31T03:23:35;3.30;;;3.00;;
3541;SDS011;1785;47.388;8.538;2023-08-31T03:26:06;5.53;;;3.73;;
3541;SDS011;1785;47.388;8.538;2023-08-31T03:28:32;4.07;;;3.67;;
3541;SDS011;1785;47.388;8.538;2023-08-31T03:30:58;2.87;;;2.13;;
3541;SDS011;1785;47.388;8.538;2023-08-31T03:33:24;3.17;;;2.10;;
3541;SDS011;1785;47.388;8.538;2023-08-31T03:35:50;2.10;;;2.00;;
3541;SDS011;1785;47.388;8.538;2023-08-31T03:38:17;2.40;;;2.10;;
3541;SDS011;1785;47.388;8.538;2023-08-31T03:40:43;3.10;;;2.90;;
3541;SDS011;1785;47.388;8.538;2023-08-31T03:43:18;2.70;;;2.50;;
3541;SDS011;1785;47.388;8.538;2023-08-31T03:45:44;2.33;;;2.13;;
3541;SDS011;1785;47.388;8.538;2023-08-31T03:48:10;2.27;;;2.00;;
3541;SDS011;1785;47.388;8.538;2023-08-31T03:50:37;3.63;;;2.10;;
3541;SDS011;1785;47.388;8.538;2023-08-31T03:53:03;2.07;;;1.87;;
3541;SDS011;1785;47.388;8.538;2023-08-31T03:55:29;3.20;;;2.63;;
3541;SDS011;1785;47.388;8.538;2023-08-31T03:57:56;2.00;;;1.90;;
3541;SDS011;1785;47.388;8.538;2023-08-31T04:00:23;4.80;;;1.70;;
3541;SDS011;1785;47.388;8.538;2023-08-31T04:02:49;2.40;;;2.20;;
3541;SDS011;1785;47.388;8.538;2023-08-31T04:05:15;2.97;;;2.37;;
3541;SDS011;1785;47.388;8.538;2023-08-31T04:07:41;2.57;;;2.33;;
3541;SDS011;1785;47.388;8.538;2023-08-31T04:10:07;2.40;;;2.00;;
3541;SDS011;1785;47.388;8.538;2023-08-31T04:12:34;1.20;;;1.05;;
3541;SDS011;1785;47.388;8.538;2023-08-31T04:15:01;2.70;;;1.77;;
3541;SDS011;1785;47.388;8.538;2023-08-31T04:17:29;2.20;;;2.00;;
3541;SDS011;1785;47.388;8.538;2023-08-31T04:19:55;2.53;;;2.33;;
3541;SDS011;1785;47.388;8.538;2023-08-31T04:22:21;1.80;;;1.70;;
3541;SDS011;1785;47.388;8.538;2023-08-31T04:24:47;1.93;;;1.80;;
3541;SDS011;1785;47.388;8.538;2023-08-31T04:27:13;1.40;;;1.10;;
3541;SDS011;1785;47.388;8.538;2023-08-31T04:29:39;2.20;;;2.00;;
3541;SDS011;1785;47.388;8.538;2023-08-31T04:32:06;6.50;;;2.00;;
3541;SDS011;1785;47.388;8.538;2023-08-31T04:34:32;2.23;;;2.00;;
3541;SDS011;1785;47.388;8.538;2023-08-31T04:36:58;4.60;;;1.80;;
3541;SDS011;1785;47.388;8.538;2023-08-31T04:39:24;2.83;;;2.50;;
3541;SDS011;1785;47.388;8.538;2023-08-31T04:41:51;3.53;;;1.80;;
3541;SDS011;1785;47.388;8.538;2023-08-31T04:44:17;2.30;;;2.20;;
3541;SDS011;1785;47.388;8.538;2023-08-31T04:46:44;1.90;;;1.80;;
3541;SDS011;1785;47.388;8.538;2023-08-31T04:49:11;2.93;;;2.70;;
3541;SDS011;1785;47.388;8.538;2023-08-31T04:51:37;3.70;;;2.20;;
3541;SDS011;1785;47.388;8.538;2023-08-31T04:54:04;2.87;;;2.60;;
3541;SDS011;1785;47.388;8.538;2023-08-31T04:56:31;3.33;;;2.50;;
3541;SDS011;1785;47.388;8.538;2023-08-31T04:58:58;2.83;;;2.63;;
3541;SDS011;1785;47.388;8.538;2023-08-31T05:01:25;2.97;;;2.30;;
3541;SDS011;1785;47.388;8.538;2023-08-31T05:03:51;3.00;;;2.80;;
3541;SDS011;1785;47.388;8.538;2023-08-31T05:06:17;2.70;;;2.50;;
3541;SDS011;1785;47.388;8.538;2023-08-31T05:08:44;3.23;;;2.60;;
3541;SDS011;1785;47.388;8.538;2023-08-31T05:11:10;3.10;;;2.50;;
3541;SDS011;1785;47.388;8.538;2023-08-31T05:13:36;4.40;;;2.37;;
3541;SDS011;1785;47.388;8.538;2023-08-31T05:16:03;2.63;;;2.17;;
3541;SDS011;1785;47.388;8.538;2023-08-31T05:18:29;3.40;;;3.10;;
3541;SDS011;1785;47.388;8.538;2023-08-31T05:20:55;4.20;;;2.77;;
3541;SDS011;1785;47.388;8.538;2023-08-31T05:23:22;3.17;;;2.87;;
3541;SDS011;1785;47.388;8.538;2023-08-31T05:25:48;2.80;;;2.60;;
3541;SDS011;1785;47.388;8.538;2023-08-31T05:28:14;2.47;;;2.10;;
3541;SDS011;1785;47.388;8.538;2023-08-31T05:30:47;3.60;;;2.70;;
3541;SDS011;1785;47.388;8.538;2023-08-31T05:33:15;3.00;;;2.77;;
3541;SDS011;1785;47.388;8.538;2023-08-31T05:35:41;2.87;;;2.67;;
3541;SDS011;1785;47.388;8.538;2023-08-31T05:38:07;3.13;;;2.70;;
3541;SDS011;1785;47.388;8.538;2023-08-31T05:40:33;3.53;;;3.23;;
3541;SDS011;1785;47.388;8.538;2023-08-31T05:42:59;3.30;;;3.00;;
3541;SDS011;1785;47.388;8.538;2023-08-31T05:45:25;4.43;;;3.27;;
3541;SDS011;1785;47.388;8.538;2023-08-31T05:47:51;2.90;;;2.70;;
3541;SDS011;1785;47.388;8.538;2023-08-31T05:50:17;4.10;;;2.87;;
3541;SDS011;1785;47.388;8.538;2023-08-31T05:52:43;2.90;;;2.63;;
3541;SDS011;1785;47.388;8.538;2023-08-31T05:55:09;5.20;;;3.00;;
3541;SDS011;1785;47.388;8.538;2023-08-31T05:57:36;6.30;;;3.20;;
3541;SDS011;1785;47.388;8.538;2023-08-31T06:00:03;6.57;;;3.27;;
3541;SDS011;1785;47.388;8.538;2023-08-31T06:02:32;4.37;;;2.97;;
3541;SDS011;1785;47.388;8.538;2023-08-31T06:04:58;2.60;;;2.40;;
3541;SDS011;1785;47.388;8.538;2023-08-31T06:07:24;4.50;;;2.53;;
3541;SDS011;1785;47.388;8.538;2023-08-31T06:09:51;3.70;;;2.73;;
3541;SDS011;1785;47.388;8.538;2023-08-31T06:12:17;2.80;;;2.60;;
3541;SDS011;1785;47.388;8.538;2023-08-31T06:14:44;3.00;;;2.40;;
3541;SDS011;1785;47.388;8.538;2023-08-31T06:17:10;3.03;;;2.77;;
3541;SDS011;1785;47.388;8.538;2023-08-31T06:19:38;4.23;;;2.40;;
3541;SDS011;1785;47.388;8.538;2023-08-31T06:22:04;2.63;;;2.43;;
3541;SDS011;1785;47.388;8.538;2023-08-31T06:24:30;3.60;;;3.10;;
3541;SDS011;1785;47.388;8.538;2023-08-31T06:26:57;4.30;;;3.20;;
3541;SDS011;1785;47.388;8.538;2023-08-31T06:29:23;4.10;;;3.30;;
3541;SDS011;1785;47.388;8.538;2023-08-31T06:31:50;3.30;;;3.00;;
3541;SDS011;1785;47.388;8.538;2023-08-31T06:34:16;7.20;;;3.20;;
3541;SDS011;1785;47.388;8.538;2023-08-31T06:36:42;4.97;;;3.50;;
3541;SDS011;1785;47.388;8.538;2023-08-31T06:39:08;3.90;;;3.60;;
3541;SDS011;1785;47.388;8.538;2023-08-31T06:41:34;3.87;;;3.47;;
3541;SDS011;1785;47.388;8.538;2023-08-31T06:44:01;3.93;;;3.57;;
3541;SDS011;1785;47.388;8.538;2023-08-31T06:46:27;2.90;;;2.63;;
3541;SDS011;1785;47.388;8.538;2023-08-31T06:48:54;3.67;;;2.28;;
3541;SDS011;1785;47.388;8.538;2023-08-31T06:51:20;5.20;;;3.10;;
3541;SDS011;1785;47.388;8.538;2023-08-31T06:53:46;5.50;;;2.93;;
3541;SDS011;1785;47.388;8.538;2023-08-31T06:56:12;3.53;;;3.23;;
3541;SDS011;1785;47.388;8.538;2023-08-31T06:58:38;5.43;;;3.20;;
3541;SDS011;1785;47.388;8.538;2023-08-31T07:01:05;4.80;;;3.60;;
3541;SDS011;1785;47.388;8.538;2023-08-31T07:03:31;3.63;;;2.33;;
3541;SDS011;1785;47.388;8.538;2023-08-31T07:05:59;3.60;;;3.07;;
3541;SDS011;1785;47.388;8.538;2023-08-31T07:08:25;3.60;;;3.27;;
3541;SDS011;1785;47.388;8.538;2023-08-31T07:10:51;3.30;;;3.10;;
3541;SDS011;1785;47.388;8.538;2023-08-31T07:13:17;4.23;;;3.00;;
3541;SDS011;1785;47.388;8.538;2023-08-31T07:15:43;5.87;;;3.13;;
3541;SDS011;1785;47.388;8.538;2023-08-31T07:18:09;3.83;;;3.53;;
3541;SDS011;1785;47.388;8.538;2023-08-31T07:20:35;5.77;;;3.60;;
3541;SDS011;1785;47.388;8.538;2023-08-31T07:23:02;3.63;;;3.33;;
3541;SDS011;1785;47.388;8.538;2023-08-31T07:25:29;5.87;;;3.20;;
3541;SDS011;1785;47.388;8.538;2023-08-31T07:27:55;5.10;;;3.60;;
3541;SDS011;1785;47.388;8.538;2023-08-31T07:30:21;4.07;;;3.37;;
3541;SDS011;1785;47.388;8.538;2023-08-31T07:32:47;3.50;;;3.20;;
3541;SDS011;1785;47.388;8.538;2023-08-31T07:35:13;4.00;;;3.43;;
3541;SDS011;1785;47.388;8.538;2023-08-31T07:37:39;4.27;;;3.20;;
3541;SDS011;1785;47.388;8.538;2023-08-31T07:40:08;4.33;;;3.33;;
3541;SDS011;1785;47.388;8.538;2023-08-31T07:42:35;3.40;;;3.13;;
3541;SDS011;1785;47.388;8.538;2023-08-31T07:45:01;3.00;;;2.70;;
3541;SDS011;1785;47.388;8.538;2023-08-31T07:47:27;4.20;;;3.70;;
3541;SDS011;1785;47.388;8.538;2023-08-31T07:49:54;4.63;;;3.13;;
3541;SDS011;1785;47.388;8.538;2023-08-31T07:52:20;4.03;;;3.30;;
3541;SDS011;1785;47.388;8.538;2023-08-31T07:54:46;4.63;;;4.17;;
3541;SDS011;1785;47.388;8.538;2023-08-31T07:57:12;3.40;;;3.20;;
3541;SDS011;1785;47.388;8.538;2023-08-31T07:59:38;4.55;;;2.75;;
3541;SDS011;1785;47.388;8.538;2023-08-31T08:02:05;3.17;;;2.93;;
3541;SDS011;1785;47.388;8.538;2023-08-31T08:04:31;2.70;;;2.50;;
3541;SDS011;1785;47.388;8.538;2023-08-31T08:06:57;4.00;;;2.90;;
3541;SDS011;1785;47.388;8.538;2023-08-31T08:09:24;6.33;;;3.17;;
3541;SDS011;1785;47.388;8.538;2023-08-31T08:11:50;2.60;;;2.40;;
3541;SDS011;1785;47.388;8.538;2023-08-31T08:14:16;3.13;;;2.93;;
3541;SDS011;1785;47.388;8.538;2023-08-31T08:16:42;3.20;;;2.70;;
3541;SDS011;1785;47.388;8.538;2023-08-31T08:19:09;3.00;;;2.80;;
3541;SDS011;1785;47.388;8.538;2023-08-31T08:21:35;4.50;;;4.10;;
3541;SDS011;1785;47.388;8.538;2023-08-31T08:24:01;5.07;;;3.00;;
3541;SDS011;1785;47.388;8.538;2023-08-31T08:26:28;4.23;;;3.77;;
3541;SDS011;1785;47.388;8.538;2023-08-31T08:28:54;4.17;;;3.60;;
3541;SDS011;1785;47.388;8.538;2023-08-31T08:31:20;3.23;;;2.90;;
3541;SDS011;1785;47.388;8.538;2023-08-31T08:33:47;11.80;;;3.60;;
3541;SDS011;1785;47.388;8.538;2023-08-31T08:36:13;4.90;;;4.40;;
3541;SDS011;1785;47.388;8.538;2023-08-31T08:38:39;4.90;;;3.90;;
3541;SDS011;1785;47.388;8.538;2023-08-31T08:41:05;5.57;;;3.43;;
3541;SDS011;1785;47.388;8.538;2023-08-31T08:43:31;5.20;;;3.60;;
3541;SDS011;1785;47.388;8.538;2023-08-31T08:45:59;3.90;;;3.60;;
3541;SDS011;1785;47.388;8.538;2023-08-31T08:48:33;5.50;;;3.90;;
3541;SDS011;1785;47.388;8.538;2023-08-31T08:51:03;5.93;;;3.57;;
3541;SDS011;1785;47.388;8.538;2023-08-31T08:53:30;3.50;;;3.13;;
3541;SDS011;1785;47.388;8.538;2023-08-31T08:55:56;3.33;;;2.40;;
3541;SDS011;1785;47.388;8.538;2023-08-31T08:58:23;3.80;;;3.13;;
3541;SDS011;1785;47.388;8.538;2023-08-31T09:00:49;3.53;;;2.97;;
3541;SDS011;1785;47.388;8.538;2023-08-31T09:03:17;3.30;;;3.10;;
3541;SDS011;1785;47.388;8.538;2023-08-31T09:05:44;5.23;;;3.80;;
3541;SDS011;1785;47.388;8.538;2023-08-31T09:08:10;7.60;;;3.50;;
3541;SDS011;1785;47.388;8.538;2023-08-31T09:10:38;3.50;;;3.20;;
3541;SDS011;1785;47.388;8.538;2023-08-31T09:13:05;4.13;;;3.67;;
3541;SDS011;1785;47.388;8.538;2023-08-31T09:15:36;3.80;;;3.00;;
3541;SDS011;1785;47.388;8.538;2023-08-31T09:18:06;4.67;;;3.30;;
3541;SDS011;1785;47.388;8.538;2023-08-31T09:20:44;3.50;;;3.20;;
3541;SDS011;1785;47.388;8.538;2023-08-31T09:23:11;4.00;;;3.60;;
3541;SDS011;1785;47.388;8.538;2023-08-31T09:25:40;4.43;;;4.03;;
3541;SDS011;1785;47.388;8.538;2023-08-31T09:28:08;4.50;;;3.20;;
3541;SDS011;1785;47.388;8.538;2023-08-31T09:30:34;5.30;;;3.50;;
3541;SDS011;1785;47.388;8.538;2023-08-31T09:33:02;3.67;;;3.33;;
3541;SDS011;1785;47.388;8.538;2023-08-31T09:35:29;8.13;;;3.10;;
3541;SDS011;1785;47.388;8.538;2023-08-31T09:37:56;4.10;;;3.13;;
3541;SDS011;1785;47.388;8.538;2023-08-31T09:40:22;3.53;;;3.10;;
3541;SDS011;1785;47.388;8.538;2023-08-31T09:42:49;6.73;;;3.37;;
3541;SDS011;1785;47.388;8.538;2023-08-31T09:45:16;4.00;;;3.33;;
3541;SDS011;1785;47.388;8.538;2023-08-31T09:47:42;4.07;;;2.80;;
3541;SDS011;1785;47.388;8.538;2023-08-31T09:50:09;7.13;;;3.20;;
3541;SDS011;1785;47.388;8.538;2023-08-31T09:52:36;6.20;;;3.50;;
3541;SDS011;1785;47.388;8.538;2023-08-31T09:55:04;4.20;;;3.07;;
3541;SDS011;1785;47.388;8.538;2023-08-31T09:57:31;2.90;;;2.70;;
3541;SDS011;1785;47.388;8.538;2023-08-31T09:59:58;5.43;;;2.80;;
3541;SDS011;1785;47.388;8.538;2023-08-31T10:02:25;5.10;;;2.80;;
3541;SDS011;1785;47.388;8.538;2023-08-31T10:04:52;4.70;;;2.80;;
3541;SDS011;1785;47.388;8.538;2023-08-31T10:07:19;3.33;;;3.10;;
3541;SDS011;1785;47.388;8.538;2023-08-31T10:09:46;4.90;;;3.33;;
3541;SDS011;1785;47.388;8.538;2023-08-31T10:12:14;4.07;;;3.30;;
3541;SDS011;1785;47.388;8.538;2023-08-31T10:14:40;3.40;;;3.10;;
3541;SDS011;1785;47.388;8.538;2023-08-31T10:17:06;5.40;;;3.10;;
3541;SDS011;1785;47.388;8.538;2023-08-31T10:19:33;5.63;;;2.90;;
3541;SDS011;1785;47.388;8.538;2023-08-31T10:21:59;3.13;;;2.93;;
3541;SDS011;1785;47.388;8.538;2023-08-31T10:27:23;5.53;;;2.70;;
3541;SDS011;1785;47.388;8.538;2023-08-31T10:29:53;3.83;;;3.43;;
3541;SDS011;1785;47.388;8.538;2023-08-31T10:32:19;4.20;;;3.90;;
3541;SDS011;1785;47.388;8.538;2023-08-31T10:35:02;5.53;;;3.97;;
3541;SDS011;1785;47.388;8.538;2023-08-31T10:37:30;3.40;;;3.10;;
3541;SDS011;1785;47.388;8.538;2023-08-31T10:40:06;3.77;;;3.10;;
3541;SDS011;1785;47.388;8.538;2023-08-31T10:42:33;3.63;;;3.33;;
3541;SDS011;1785;47.388;8.538;2023-08-31T10:45:07;4.73;;;3.20;;
3541;SDS011;1785;47.388;8.538;2023-08-31T10:47:36;3.83;;;3.50;;
3541;SDS011;1785;47.388;8.538;2023-08-31T10:50:15;5.07;;;3.57;;
3541;SDS011;1785;47.388;8.538;2023-08-31T10:52:43;3.63;;;3.30;;
3541;SDS011;1785;47.388;8.538;2023-08-31T10:55:10;4.30;;;3.90;;
3541;SDS011;1785;47.388;8.538;2023-08-31T10:57:37;5.47;;;3.13;;
3541;SDS011;1785;47.388;8.538;2023-08-31T11:00:05;3.93;;;3.47;;
3541;SDS011;1785;47.388;8.538;2023-08-31T11:02:35;3.73;;;3.20;;
3541;SDS011;1785;47.388;8.538;2023-08-31T11:05:05;3.10;;;2.80;;
3541;SDS011;1785;47.388;8.538;2023-08-31T11:07:33;4.57;;;3.73;;
3541;SDS011;1785;47.388;8.538;2023-08-31T11:10:07;3.67;;;3.30;;
3541;SDS011;1785;47.388;8.538;2023-08-31T11:12:35;6.00;;;3.30;;
3541;SDS011;1785;47.388;8.538;2023-08-31T11:15:02;3.10;;;2.80;;
3541;SDS011;1785;47.388;8.538;2023-08-31T11:17:29;4.47;;;3.20;;
3541;SDS011;1785;47.388;8.538;2023-08-31T11:19:55;4.20;;;3.47;;
3541;SDS011;1785;47.388;8.538;2023-08-31T11:22:22;4.40;;;4.00;;
3541;SDS011;1785;47.388;8.538;2023-08-31T11:24:48;5.20;;;3.50;;
3541;SDS011;1785;47.388;8.538;2023-08-31T11:27:14;3.30;;;3.00;;
3541;SDS011;1785;47.388;8.538;2023-08-31T11:29:44;3.27;;;2.97;;
3541;SDS011;1785;47.388;8.538;2023-08-31T11:32:11;3.57;;;3.27;;
3541;SDS011;1785;47.388;8.538;2023-08-31T11:34:39;5.80;;;3.37;;
3541;SDS011;1785;47.388;8.538;2023-08-31T11:37:07;4.20;;;3.80;;
3541;SDS011;1785;47.388;8.538;2023-08-31T11:39:34;10.53;;;3.50;;
3541;SDS011;1785;47.388;8.538;2023-08-31T11:42:00;4.30;;;3.13;;
3541;SDS011;1785;47.388;8.538;2023-08-31T11:44:26;5.10;;;3.17;;
3541;SDS011;1785;47.388;8.538;2023-08-31T11:46:52;5.83;;;3.50;;
3541;SDS011;1785;47.388;8.538;2023-08-31T11:49:19;3.93;;;3.47;;
3541;SDS011;1785;47.388;8.538;2023-08-31T11:51:47;3.40;;;3.10;;
3541;SDS011;1785;47.388;8.538;2023-08-31T11:54:14;6.93;;;3.87;;
3541;SDS011;1785;47.388;8.538;2023-08-31T11:56:42;4.10;;;3.00;;
3541;SDS011;1785;47.388;8.538;2023-08-31T11:59:09;3.57;;;3.00;;
3541;SDS011;1785;47.388;8.538;2023-08-31T12:01:39;5.57;;;3.43;;
3541;SDS011;1785;47.388;8.538;2023-08-31T12:04:11;4.10;;;3.70;;
3541;SDS011;1785;47.388;8.538;2023-08-31T12:06:39;3.83;;;3.23;;
3541;SDS011;1785;47.388;8.538;2023-08-31T12:09:05;6.87;;;3.57;;
3541;SDS011;1785;47.388;8.538;2023-08-31T12:11:32;5.80;;;3.37;;
3541;SDS011;1785;47.388;8.538;2023-08-31T12:13:59;3.77;;;3.27;;
3541;SDS011;1785;47.388;8.538;2023-08-31T12:16:31;6.80;;;4.20;;
3541;SDS011;1785;47.388;8.538;2023-08-31T12:18:58;5.53;;;2.63;;
3541;SDS011;1785;47.388;8.538;2023-08-31T12:21:25;3.30;;;3.00;;
3541;SDS011;1785;47.388;8.538;2023-08-31T12:23:51;3.40;;;3.10;;
3541;SDS011;1785;47.388;8.538;2023-08-31T12:26:17;3.00;;;2.70;;
3541;SDS011;1785;47.388;8.538;2023-08-31T12:28:44;3.67;;;3.10;;
3541;SDS011;1785;47.388;8.538;2023-08-31T12:31:10;3.40;;;3.10;;
3541;SDS011;1785;47.388;8.538;2023-08-31T12:33:36;3.95;;;2.53;;
3541;SDS011;1785;47.388;8.538;2023-08-31T12:36:02;6.03;;;3.60;;
3541;SDS011;1785;47.388;8.538;2023-08-31T12:38:28;4.77;;;3.30;;
3541;SDS011;1785;47.388;8.538;2023-08-31T12:40:55;4.77;;;3.00;;
3541;SDS011;1785;47.388;8.538;2023-08-31T12:43:22;6.97;;;3.73;;
3541;SDS011;1785;47.388;8.538;2023-08-31T12:45:48;4.63;;;2.70;;
3541;SDS011;1785;47.388;8.538;2023-08-31T12:48:14;3.97;;;2.83;;
3541;SDS011;1785;47.388;8.538;2023-08-31T12:50:39;4.73;;;3.20;;
3541;SDS011;1785;47.388;8.538;2023-08-31T12:53:05;5.60;;;3.30;;
3541;SDS011;1785;47.388;8.538;2023-08-31T12:55:32;5.90;;;3.23;;
3541;SDS011;1785;47.388;8.538;2023-08-31T12:57:59;4.50;;;2.67;;
3541;SDS011;1785;47.388;8.538;2023-08-31T13:00:25;3.53;;;3.13;;
3541;SDS011;1785;47.388;8.538;2023-08-31T13:02:52;3.10;;;2.63;;
3541;SDS011;1785;47.388;8.538;2023-08-31T13:05:18;4.00;;;2.90;;
3541;SDS011;1785;47.388;8.538;2023-08-31T13:07:45;4.90;;;3.03;;
3541;SDS011;1785;47.388;8.538;2023-08-31T13:10:11;6.90;;;2.97;;
3541;SDS011;1785;47.388;8.538;2023-08-31T13:12:37;6.07;;;3.10;;
3541;SDS011;1785;47.388;8.538;2023-08-31T13:15:05;3.63;;;3.10;;
3541;SDS011;1785;47.388;8.538;2023-08-31T13:17:33;11.87;;;3.50;;
3541;SDS011;1785;47.388;8.538;2023-08-31T13:19:59;2.30;;;2.10;;
3541;SDS011;1785;47.388;8.538;2023-08-31T13:22:25;12.00;;;5.90;;
3541;SDS011;1785;47.388;8.538;2023-08-31T13:24:53;3.43;;;2.70;;
3541;SDS011;1785;47.388;8.538;2023-08-31T13:27:19;5.00;;;3.13;;
3541;SDS011;1785;47.388;8.538;2023-08-31T13:29:46;6.37;;;3.23;;
3541;SDS011;1785;47.388;8.538;2023-08-31T13:32:12;7.37;;;3.27;;
3541;SDS011;1785;47.388;8.538;2023-08-31T13:34:39;3.83;;;2.53;;
3541;SDS011;1785;47.388;8.538;2023-08-31T13:37:05;3.97;;;3.53;;
3541;SDS011;1785;47.388;8.538;2023-08-31T13:39:31;4.80;;;3.53;;
3541;SDS011;1785;47.388;8.538;2023-08-31T13:42:00;4.20;;;2.70;;
3541;SDS011;1785;47.388;8.538;2023-08-31T13:44:28;4.53;;;2.47;;
3541;SDS011;1785;47.388;8.538;2023-08-31T13:46:54;3.30;;;3.00;;
3541;SDS011;1785;47.388;8.538;2023-08-31T13:49:21;3.37;;;2.50;;
3541;SDS011;1785;47.388;8.538;2023-08-31T13:51:47;5.90;;;3.70;;
3541;SDS011;1785;47.388;8.538;2023-08-31T13:54:13;5.37;;;3.77;;
3541;SDS011;1785;47.388;8.538;2023-08-31T13:56:39;4.20;;;3.80;;
3541;SDS011;1785;47.388;8.538;2023-08-31T13:59:05;3.43;;;3.13;;
3541;SDS011;1785;47.388;8.538;2023-08-31T14:01:32;3.70;;;3.17;;
3541;SDS011;1785;47.388;8.538;2023-08-31T14:03:58;3.73;;;2.83;;
3541;SDS011;1785;47.388;8.538;2023-08-31T14:06:24;4.80;;;2.77;;
3541;SDS011;1785;47.388;8.538;2023-08-31T14:08:50;4.50;;;3.20;;
3541;SDS011;1785;47.388;8.538;2023-08-31T14:11:17;3.80;;;2.63;;
3541;SDS011;1785;47.388;8.538;2023-08-31T14:13:43;3.97;;;3.57;;
3541;SDS011;1785;47.388;8.538;2023-08-31T14:16:09;4.10;;;3.03;;
3541;SDS011;1785;47.388;8.538;2023-08-31T14:18:36;4.60;;;3.00;;
3541;SDS011;1785;47.388;8.538;2023-08-31T14:21:02;3.80;;;2.80;;
3541;SDS011;1785;47.388;8.538;2023-08-31T14:23:29;4.27;;;3.43;;
3541;SDS011;1785;47.388;8.538;2023-08-31T14:26:00;5.17;;;3.70;;
3541;SDS011;1785;47.388;8.538;2023-08-31T14:28:26;4.83;;;2.70;;
3541;SDS011;1785;47.388;8.538;2023-08-31T14:30:52;3.60;;;2.90;;
3541;SDS011;1785;47.388;8.538;2023-08-31T14:33:18;3.50;;;3.20;;
3541;SDS011;1785;47.388;8.538;2023-08-31T14:35:44;5.73;;;3.50;;
3541;SDS011;1785;47.388;8.538;2023-08-31T14:38:10;4.90;;;3.57;;
3541;SDS011;1785;47.388;8.538;2023-08-31T14:40:38;4.03;;;2.70;;
3541;SDS011;1785;47.388;8.538;2023-08-31T14:43:06;5.83;;;3.70;;
3541;SDS011;1785;47.388;8.538;2023-08-31T14:45:32;6.13;;;3.63;;
3541;SDS011;1785;47.388;8.538;2023-08-31T14:47:58;5.03;;;2.80;;
3541;SDS011;1785;47.388;8.538;2023-08-31T14:50:24;2.93;;;2.73;;
3541;SDS011;1785;47.388;8.538;2023-08-31T14:52:51;4.53;;;3.83;;
3541;SDS011;1785;47.388;8.538;2023-08-31T14:55:17;3.60;;;2.97;;
3541;SDS011;1785;47.388;8.538;2023-08-31T14:57:44;3.50;;;2.90;;
3541;SDS011;1785;47.388;8.538;2023-08-31T15:00:10;3.77;;;3.33;;
3541;SDS011;1785;47.388;8.538;2023-08-31T15:02:37;5.47;;;2.90;;
3541;SDS011;1785;47.388;8.538;2023-08-31T15:05:04;4.60;;;3.20;;
3541;SDS011;1785;47.388;8.538;2023-08-31T15:07:30;6.30;;;3.90;;
3541;SDS011;1785;47.388;8.538;2023-08-31T15:09:56;4.80;;;3.40;;
3541;SDS011;1785;47.388;8.538;2023-08-31T15:12:22;4.30;;;3.90;;
3541;SDS011;1785;47.388;8.538;2023-08-31T15:14:49;3.30;;;3.00;;
3541;SDS011;1785;47.388;8.538;2023-08-31T15:17:15;3.33;;;2.87;;